Time;durP1;ratioP1;P1;durP2;ratioP2;P2;SDS_P1;SDS_P2;PMS_P1;PMS_P2;Temp;Humidity;BMP_temperature;BMP_pressure;BME280_temperature;BME280_humidity;BME280_pressure;Samples;Min_cycle;Max_cycle;Signal;HPM_P1;HPM_P2
2022/10/20 00:00:57;;;;;;;;;;;;;;;13.23;48.91;100738.63;4386052;32;19985;-86
2022/10/20 00:03:24;;;;;;;;;;;;;;;13.21;48.72;100740.34;4369170;32;19955;-87
2022/10/20 00:05:51;;;;;;;;;;;;;;;12.96;49.25;100744.16;4380920;32;19971;-87
2022/10/20 00:08:18;;;;;;;;;;;;;;;13.02;49.15;100745.16;4364913;32;19964;-87
2022/10/20 00:10:54;;;;;;;;;;;;;;;12.85;49.91;100736.13;4358662;32;19975;-87
2022/10/20 00:13:22;;;;;;;;;;;;;;;13.01;49.20;100742.53;4357907;32;20010;-87
2022/10/20 00:15:52;;;;;;;;;;;;;;;12.96;49.48;100739.84;4358485;32;19955;-86
2022/10/20 00:18:20;;;;;;;;;;;;;;;13.12;48.58;100745.37;4358610;32;19963;-87
2022/10/20 00:20:46;;;;;;;;;;;;;;;12.75;49.98;100750.62;4358553;32;19998;-87
2022/10/20 00:23:13;;;;;;;;;;;;;;;12.88;49.52;100745.72;4344314;33;19947;-87
2022/10/20 00:25:40;;;;;;;;;;;;;;;12.90;49.55;100744.91;3741727;33;5010932;-86
2022/10/20 00:28:07;;;;;;;;;;;;;;;12.84;49.57;100754.28;4342445;33;19960;-86
2022/10/20 00:30:34;;;;;;;;;;;;;;;12.82;49.38;100756.84;4341637;33;19971;-87
2022/10/20 00:33:01;;;;;;;;;;;;;;;12.80;49.85;100758.56;4341320;33;20019;-86
2022/10/20 00:35:29;;;;;;;;;;;;;;;12.80;49.87;100758.56;4340424;33;19956;-86
2022/10/20 00:37:56;;;;;;;;;;;;;;;12.73;49.98;100761.84;4328123;33;19988;-87
2022/10/20 00:40:23;;;;;;;;;;;;;;;12.82;49.34;100755.97;4326162;33;19967;-86
2022/10/20 00:42:49;;;;;;;;;;;;;;;12.77;49.57;100763.69;4325887;33;19968;-86
2022/10/20 00:45:17;;;;;;;;;;;;;;;12.56;50.25;100759.75;4326555;33;19952;-86
2022/10/20 00:47:55;;;;;;;;;;;;;;;12.55;50.07;100762.31;4326617;33;19957;-86
2022/10/20 00:50:25;;;;;;;;;;;;;;;12.65;49.91;100766.88;4342333;33;19979;-87
2022/10/20 00:52:52;;;;;;;;;;;;;;;12.66;49.71;100770.34;4333753;33;19968;-87
2022/10/20 00:55:20;;;;;;;;;;;;;;;12.53;49.92;100769.19;4328605;33;19988;-87
2022/10/20 00:57:48;;;;;;;;;;;;;;;12.42;50.45;100771.53;4341240;33;19976;-85
2022/10/20 01:00:15;;;;;;;;;;;;;;;12.05;51.52;100775.84;4340643;33;19982;-85
2022/10/20 01:02:42;;;;;;;;;;;;;;;12.09;51.59;100777.69;4346926;32;19971;-86
2022/10/20 01:05:09;;;;;;;;;;;;;;;12.02;51.75;100775.75;4340283;33;19999;-85
2022/10/20 01:07:36;;;;;;;;;;;;;;;12.17;51.55;100774.41;4347425;33;19973;-85
2022/10/20 01:10:03;;;;;;;;;;;;;;;12.35;50.78;100769.66;4341011;33;19962;-86
2022/10/20 01:12:46;;;;;;;;;;;;;;;12.25;50.88;100770.25;4340607;33;19967;-85
2022/10/20 01:15:15;;;;;;;;;;;;;;;12.01;51.39;100771.41;4341124;33;19956;-85
2022/10/20 01:17:42;;;;;;;;;;;;;;;12.12;50.98;100765.59;4340241;33;20427;-84
2022/10/20 01:20:09;;;;;;;;;;;;;;;12.22;50.65;100770.16;4337026;33;19952;-86
2022/10/20 01:22:54;;;;;;;;;;;;;;;12.16;50.83;100763.13;4315815;33;20388;-85
2022/10/20 01:25:34;;;;;;;;;;;;;;;12.03;51.41;100767.16;4367976;32;19990;-85
2022/10/20 01:28:01;;;;;;;;;;;;;;;12.05;51.26;100759.37;4350864;32;19969;-85
2022/10/20 01:30:29;;;;;;;;;;;;;;;12.01;51.64;100763.63;4372715;32;19978;-85
2022/10/20 01:32:59;;;;;;;;;;;;;;;11.96;51.44;100765.22;4360023;32;19998;-86
2022/10/20 01:35:26;;;;;;;;;;;;;;;11.93;51.17;100770.31;4379205;32;19986;-86
2022/10/20 01:37:52;;;;;;;;;;;;;;;12.07;50.78;100771.56;4376684;32;19956;-85
2022/10/20 01:40:28;;;;;;;;;;;;;;;12.02;51.07;100774.88;4372072;32;19947;-84
2022/10/20 01:42:55;;;;;;;;;;;;;;;12.01;51.22;100779.19;4345222;32;19970;-86
2022/10/20 01:45:23;;;;;;;;;;;;;;;11.90;51.55;100780.66;4358405;32;20014;-85
2022/10/20 01:47:50;;;;;;;;;;;;;;;11.69;52.16;100780.06;4358933;32;19967;-86
2022/10/20 01:50:17;;;;;;;;;;;;;;;11.78;51.81;100790.69;4359737;32;19959;-85
2022/10/20 01:52:43;;;;;;;;;;;;;;;11.61;52.29;100788.50;4368021;32;20005;-85
2022/10/20 01:55:12;;;;;;;;;;;;;;;11.64;52.13;100780.78;4357623;32;19979;-85
2022/10/20 01:57:39;;;;;;;;;;;;;;;11.71;51.72;100776.66;4370239;32;19955;-85
2022/10/20 02:00:07;;;;;;;;;;;;;;;11.80;51.45;100770.81;4368622;32;19986;-85
2022/10/20 02:02:34;;;;;;;;;;;;;;;11.68;51.68;100783.47;4373073;32;19951;-87
2022/10/20 02:05:01;;;;;;;;;;;;;;;11.64;52.09;100778.19;4370830;32;19959;-85
2022/10/20 02:07:28;;;;;;;;;;;;;;;11.86;51.07;100784.84;4368170;32;19972;-85
2022/10/20 02:10:25;;;;;;;;;;;;;;;11.75;51.54;100785.41;4362417;32;19972;-85
2022/10/20 02:12:53;;;;;;;;;;;;;;;11.73;51.43;100787.06;4354123;32;19959;-85
2022/10/20 02:15:22;;;;;;;;;;;;;;;11.48;52.00;100778.63;4362093;32;19971;-85
2022/10/20 02:17:50;;;;;;;;;;;;;;;11.57;51.66;100780.59;4355806;32;19987;-84
2022/10/20 02:20:17;;;;;;;;;;;;;;;11.50;52.18;100784.72;4376004;32;19990;-85
2022/10/20 02:22:44;;;;;;;;;;;;;;;11.49;51.93;100783.00;4374929;32;19975;-85
2022/10/20 02:25:11;;;;;;;;;;;;;;;11.10;52.65;100794.00;4375144;32;19975;-84
2022/10/20 02:27:38;;;;;;;;;;;;;;;11.45;51.89;100790.63;4362769;32;19968;-85
2022/10/20 02:30:06;;;;;;;;;;;;;;;11.38;52.02;100789.56;4373894;32;19946;-85
2022/10/20 02:32:34;;;;;;;;;;;;;;;11.31;52.50;100787.66;4370727;32;19959;-84
2022/10/20 02:35:03;;;;;;;;;;;;;;;11.50;51.60;100789.91;4366612;32;19993;-87
2022/10/20 02:37:32;;;;;;;;;;;;;;;11.39;52.10;100799.09;4368709;32;20102;-87
2022/10/20 02:40:00;;;;;;;;;;;;;;;11.38;52.05;100794.75;4373240;32;19947;-85
2022/10/20 02:42:26;;;;;;;;;;;;;;;11.11;52.60;100789.69;4383838;32;20322;-84
2022/10/20 02:44:54;;;;;;;;;;;;;;;11.27;51.91;100793.59;4379710;32;20157;-86
2022/10/20 02:47:21;;;;;;;;;;;;;;;11.17;51.97;100790.75;4386807;32;19979;-85
2022/10/20 02:49:47;;;;;;;;;;;;;;;11.28;52.00;100792.75;4374098;32;19955;-85
2022/10/20 02:52:15;;;;;;;;;;;;;;;11.13;52.29;100799.22;4373720;32;19983;-87
2022/10/20 02:54:41;;;;;;;;;;;;;;;11.35;51.48;100799.84;4386764;32;19955;-85
2022/10/20 02:57:08;;;;;;;;;;;;;;;11.13;52.34;100804.41;4386494;32;19970;-85
2022/10/20 02:59:35;;;;;;;;;;;;;;;11.30;51.25;100804.06;4374035;32;19951;-85
2022/10/20 03:02:02;;;;;;;;;;;;;;;10.93;52.59;100802.97;4366410;32;19963;-85
2022/10/20 03:04:28;;;;;;;;;;;;;;;10.63;53.53;100797.75;4377032;32;20010;-85
2022/10/20 03:06:56;;;;;;;;;;;;;;;10.75;53.55;100799.81;3915532;32;5001742;-85
2022/10/20 03:09:22;;;;;;;;;;;;;;;11.04;52.80;100804.19;4356301;33;19951;-86
2022/10/20 03:11:49;;;;;;;;;;;;;;;11.00;52.97;100802.31;4370060;32;19951;-86
2022/10/20 03:14:16;;;;;;;;;;;;;;;10.96;52.91;100810.81;4371232;32;19967;-85
2022/10/20 03:16:43;;;;;;;;;;;;;;;10.89;53.07;100807.16;4384593;32;19990;-86
2022/10/20 03:19:10;;;;;;;;;;;;;;;11.03;52.88;100807.56;4386577;32;19959;-84
2022/10/20 03:21:37;;;;;;;;;;;;;;;11.00;52.63;100810.06;4373937;32;20009;-85
2022/10/20 03:24:04;;;;;;;;;;;;;;;11.12;52.23;100818.22;4365178;32;19951;-86
2022/10/20 03:26:31;;;;;;;;;;;;;;;11.10;52.44;100816.41;4373006;32;19983;-84
2022/10/20 03:28:58;;;;;;;;;;;;;;;10.84;53.41;100815.63;4385614;32;20464;-84
2022/10/20 03:31:25;;;;;;;;;;;;;;;10.98;52.56;100813.47;4385225;32;19962;-85
2022/10/20 03:33:51;;;;;;;;;;;;;;;11.00;52.54;100817.84;4360628;32;19964;-86
2022/10/20 03:36:18;;;;;;;;;;;;;;;11.01;52.62;100817.03;4372555;32;19959;-85
2022/10/20 03:38:45;;;;;;;;;;;;;;;10.92;52.61;100814.16;4372511;32;19974;-84
2022/10/20 03:41:12;;;;;;;;;;;;;;;10.71;53.32;100820.41;4385632;32;19951;-86
2022/10/20 03:43:39;;;;;;;;;;;;;;;10.86;52.59;100816.56;4373463;32;19962;-85
2022/10/20 03:46:07;;;;;;;;;;;;;;;10.66;53.44;100824.59;4371819;32;20006;-85
2022/10/20 03:48:34;;;;;;;;;;;;;;;10.95;52.10;100819.44;4361182;32;19982;-86
2022/10/20 03:51:01;;;;;;;;;;;;;;;10.93;52.19;100826.28;4385808;32;19955;-85
2022/10/20 03:53:28;;;;;;;;;;;;;;;11.03;51.98;100823.13;4386097;32;19955;-85
2022/10/20 03:55:55;;;;;;;;;;;;;;;10.92;52.02;100830.59;4386217;32;19966;-85
2022/10/20 03:58:22;;;;;;;;;;;;;;;10.78;52.05;100825.78;4385819;32;19959;-85
2022/10/20 04:00:48;;;;;;;;;;;;;;;10.78;52.42;100825.78;4373422;32;19989;-85
2022/10/20 04:03:15;;;;;;;;;;;;;;;10.69;52.19;100822.09;4361823;32;19943;-85
2022/10/20 04:05:42;;;;;;;;;;;;;;;10.78;51.82;100825.78;4385209;32;19967;-85
2022/10/20 04:08:09;;;;;;;;;;;;;;;10.85;51.69;100822.59;4372653;32;20131;-85
2022/10/20 04:10:36;;;;;;;;;;;;;;;10.75;51.77;100830.88;4385518;32;19971;-85
2022/10/20 04:13:03;;;;;;;;;;;;;;;10.69;52.02;100827.28;4385120;32;19968;-87
2022/10/20 04:15:30;;;;;;;;;;;;;;;10.79;51.67;100827.56;4371964;32;19974;-84
2022/10/20 04:17:57;;;;;;;;;;;;;;;10.52;52.48;100823.25;4373118;32;19974;-85
2022/10/20 04:20:24;;;;;;;;;;;;;;;10.55;52.16;100828.53;3764250;32;10009608;-87
2022/10/20 04:22:50;;;;;;;;;;;;;;;10.53;52.38;100825.03;4365881;32;19970;-85
2022/10/20 04:25:17;;;;;;;;;;;;;;;10.62;51.63;100820.13;4382751;32;19951;-84
2022/10/20 04:27:44;;;;;;;;;;;;;;;10.60;51.58;100820.94;4384830;32;19959;-85
2022/10/20 04:30:11;;;;;;;;;;;;;;;10.46;52.01;100817.88;4371371;32;19987;-85
2022/10/20 04:32:38;;;;;;;;;;;;;;;10.50;51.87;100818.88;4385786;32;19943;-85
2022/10/20 04:35:05;;;;;;;;;;;;;;;10.08;52.92;100825.22;4372745;32;19978;-85
2022/10/20 04:37:31;;;;;;;;;;;;;;;10.41;51.85;100822.06;4373055;32;19978;-82
2022/10/20 04:39:58;;;;;;;;;;;;;;;10.24;52.45;100822.34;4383229;32;19986;-83
2022/10/20 04:42:25;;;;;;;;;;;;;;;10.29;52.40;100819.06;4385610;32;19965;-84
2022/10/20 04:44:52;;;;;;;;;;;;;;;10.02;53.31;100819.87;4372707;32;19975;-88
2022/10/20 04:48:12;;;;;;;;;;;;;;;10.30;51.98;100815.63;4371932;32;19951;-88
2022/10/20 04:50:39;;;;;;;;;;;;;;;10.23;52.45;100820.56;4372478;32;19990;-85
2022/10/20 04:53:06;;;;;;;;;;;;;;;10.27;52.41;100815.53;4373078;32;19958;-87
2022/10/20 04:55:34;;;;;;;;;;;;;;;10.31;52.42;100822.59;4379599;32;20127;-87
2022/10/20 04:58:00;;;;;;;;;;;;;;;10.41;51.85;100817.75;4345562;32;19993;-87
2022/10/20 05:00:28;;;;;;;;;;;;;;;10.26;52.04;100830.19;4370806;32;19979;-85
2022/10/20 05:02:55;;;;;;;;;;;;;;;10.23;52.22;100828.34;4355244;32;20036;-85
2022/10/20 05:05:22;;;;;;;;;;;;;;;10.30;51.87;100831.16;4370433;32;19979;-84
2022/10/20 05:07:48;;;;;;;;;;;;;;;10.19;51.76;100828.19;4356888;32;19983;-85
2022/10/20 05:10:16;;;;;;;;;;;;;;;10.27;51.86;100838.81;4370182;32;19983;-82
2022/10/20 05:12:43;;;;;;;;;;;;;;;10.17;52.06;100841.06;4370788;32;19993;-85
2022/10/20 05:15:10;;;;;;;;;;;;;;;10.08;52.36;100845.91;4367920;32;19975;-84
2022/10/20 05:17:37;;;;;;;;;;;;;;;10.05;52.44;100851.03;4306976;32;19983;-88
2022/10/20 05:20:04;;;;;;;;;;;;;;;9.91;52.86;100849.66;4347836;32;20001;-88
2022/10/20 06:47:41;;;;;;;;;;;;;;;11.12;53.75;100942.59;4338132;32;20027;-85
2022/10/20 06:50:09;;;;;;;;;;;;;;;11.35;53.50;100942.44;4331766;33;20002;-85
2022/10/20 06:52:36;;;;;;;;;;;;;;;11.52;53.74;100954.22;4323402;32;19995;-84
2022/10/20 06:55:04;;;;;;;;;;;;;;;11.59;53.77;100955.28;4342472;32;20045;-83
2022/10/20 06:57:31;;;;;;;;;;;;;;;11.83;53.11;100952.50;4341108;32;19995;-83
2022/10/20 06:59:58;;;;;;;;;;;;;;;12.24;52.74;100953.69;4355622;32;19983;-83
2022/10/20 07:02:24;;;;;;;;;;;;;;;12.67;51.54;100957.44;4350299;32;19979;-85
2022/10/20 07:04:51;;;;;;;;;;;;;;;12.96;50.54;100952.06;4346046;32;19991;-85
2022/10/20 07:07:19;;;;;;;;;;;;;;;13.15;50.43;100953.41;4328700;32;19990;-84
2022/10/20 07:09:45;;;;;;;;;;;;;;;13.33;50.27;100953.81;4348211;32;20036;-85
2022/10/20 07:12:13;;;;;;;;;;;;;;;13.44;50.56;100962.78;4346426;32;20040;-85
2022/10/20 07:14:39;;;;;;;;;;;;;;;13.66;50.25;100955.44;4322100;32;20059;-87
2022/10/20 07:17:06;;;;;;;;;;;;;;;13.89;49.71;100956.78;4307163;33;19992;-86
2022/10/20 07:19:33;;;;;;;;;;;;;;;14.11;48.68;100962.44;4310751;33;19996;-84
2022/10/20 07:22:00;;;;;;;;;;;;;;;14.24;48.16;100958.34;4310091;33;20020;-86
2022/10/20 07:24:28;;;;;;;;;;;;;;;14.12;49.84;100958.97;4309402;33;19985;-84
2022/10/20 07:26:57;;;;;;;;;;;;;;;14.60;48.32;100960.75;4307625;33;19988;-85
2022/10/20 07:29:30;;;;;;;;;;;;;;;14.76;48.48;100960.19;4310704;33;20017;-85
2022/10/20 07:32:04;;;;;;;;;;;;;;;14.43;46.80;100969.13;4308255;33;20050;-86
2022/10/20 07:34:32;;;;;;;;;;;;;;;14.81;46.74;100968.97;4307690;33;20016;-86
2022/10/20 07:37:00;;;;;;;;;;;;;;;15.26;45.63;100962.72;4314316;32;20329;-85
2022/10/20 07:39:29;;;;;;;;;;;;;;;15.35;45.77;100968.09;4351109;32;19988;-85
2022/10/20 07:41:58;;;;;;;;;;;;;;;15.38;45.33;100968.97;4348130;32;19998;-85
2022/10/20 07:44:25;;;;;;;;;;;;;;;15.72;44.11;100966.00;4337537;32;20038;-87
2022/10/20 07:46:52;;;;;;;;;;;;;;;15.91;43.84;100968.84;4348205;32;20039;-85
2022/10/20 07:49:20;;;;;;;;;;;;;;;16.22;43.09;100976.19;4347598;32;20071;-86
2022/10/20 07:52:08;;;;;;;;;;;;;;;16.42;43.14;100970.31;4352204;32;19986;-87
2022/10/20 07:54:35;;;;;;;;;;;;;;;16.32;42.54;100981.53;4348261;32;20046;-85
2022/10/20 07:57:01;;;;;;;;;;;;;;;15.93;42.95;100977.59;4348271;32;20411;-85
2022/10/20 07:59:29;;;;;;;;;;;;;;;16.59;42.00;100970.47;4348311;32;20037;-85
2022/10/20 08:01:56;;;;;;;;;;;;;;;16.76;42.36;100970.69;4345510;32;19991;-85
2022/10/20 08:04:30;;;;;;;;;;;;;;;17.18;41.94;100968.38;4344854;32;20103;-84
2022/10/20 08:06:58;;;;;;;;;;;;;;;17.35;41.30;100970.25;4349641;32;19988;-86
2022/10/20 08:09:25;;;;;;;;;;;;;;;17.51;40.92;100960.75;4349995;32;20030;-86
2022/10/20 08:11:54;;;;;;;;;;;;;;;17.47;39.29;100969.47;4348681;32;19968;-86
2022/10/20 08:14:22;;;;;;;;;;;;;;;17.28;39.86;100978.94;4335136;32;20007;-86
2022/10/20 08:17:01;;;;;;;;;;;;;;;17.32;39.36;100976.31;4347519;32;20025;-87
2022/10/20 08:19:31;;;;;;;;;;;;;;;17.20;39.94;100982.37;4354228;32;20010;-87
2022/10/20 08:22:18;;;;;;;;;;;;;;;17.43;40.48;100979.03;4313355;33;20047;-86
2022/10/20 08:24:45;;;;;;;;;;;;;;;17.13;40.15;100975.34;4308788;33;20002;-86
2022/10/20 08:27:12;;;;;;;;;;;;;;;17.66;40.15;100976.53;4306548;33;20179;-87
2022/10/20 08:29:40;;;;;;;;;;;;;;;17.89;39.20;100989.78;4320985;33;20010;-86
2022/10/20 08:32:06;;;;;;;;;;;;;;;18.10;39.66;100983.75;4318393;33;20022;-86
2022/10/20 08:34:33;;;;;;;;;;;;;;;17.63;42.26;100982.63;4307178;33;19988;-84
2022/10/20 08:37:00;;;;;;;;;;;;;;;17.88;40.76;100977.56;4309571;33;19999;-86
2022/10/20 08:39:27;;;;;;;;;;;;;;;18.24;40.14;100981.19;4308620;33;20371;-84
2022/10/20 08:41:54;;;;;;;;;;;;;;;18.52;39.76;100975.13;4309054;33;20019;-85
2022/10/20 08:44:34;;;;;;;;;;;;;;;18.19;39.36;100977.66;4319164;33;20326;-85
2022/10/20 08:47:01;;;;;;;;;;;;;;;18.34;39.49;100975.94;4308619;33;19988;-84
2022/10/20 08:49:28;;;;;;;;;;;;;;;18.72;37.99;100976.91;4321256;33;20031;-85
2022/10/20 08:51:55;;;;;;;;;;;;;;;18.59;38.84;100990.00;4320813;33;19976;-84
2022/10/20 08:54:22;;;;;;;;;;;;;;;18.23;38.01;100984.69;3979507;33;10003623;-87
2022/10/20 08:56:49;;;;;;;;;;;;;;;18.65;38.67;100983.03;4280038;33;20049;-86
2022/10/20 08:59:22;;;;;;;;;;;;;;;18.05;39.40;100988.97;4294068;33;19984;-86
2022/10/20 09:01:49;;;;;;;;;;;;;;;18.05;38.35;100985.47;4310250;33;20008;-91
2022/10/20 09:04:17;;;;;;;;;;;;;;;17.80;42.31;100984.50;4311665;33;20007;-87
2022/10/20 09:06:46;;;;;;;;;;;;;;;17.82;39.45;100982.78;4305716;33;20052;-87
2022/10/20 09:12:39;;;;;;;;;;;;;;;18.00;39.83;100982.00;4299190;33;20302;-85
2022/10/20 09:15:08;;;;;;;;;;;;;;;17.80;37.93;100984.50;4302126;33;19984;-84
2022/10/20 09:17:34;;;;;;;;;;;;;;;17.77;39.15;100976.63;4297109;33;19980;-85
2022/10/20 09:20:02;;;;;;;;;;;;;;;18.17;38.14;100979.41;4304445;33;20117;-85
2022/10/20 09:22:29;;;;;;;;;;;;;;;18.21;37.62;100975.94;4322082;33;20047;-85
2022/10/20 09:25:01;;;;;;;;;;;;;;;18.73;36.99;100976.06;4342014;32;19975;-84
2022/10/20 09:27:28;;;;;;;;;;;;;;;18.47;39.57;100976.84;4346835;32;19996;-85
2022/10/20 09:29:55;;;;;;;;;;;;;;;18.77;35.94;100975.19;4344580;32;19990;-84
2022/10/20 09:32:32;;;;;;;;;;;;;;;18.79;35.50;100976.97;4353184;32;20132;-85
2022/10/20 09:35:23;;;;;;;;;;;;;;;18.29;37.48;100977.72;4354220;32;19971;-85
2022/10/20 09:37:56;;;;;;;;;;;;;;;18.44;37.25;100979.50;4348644;32;19983;-86
2022/10/20 09:40:24;;;;;;;;;;;;;;;18.25;36.76;100980.31;4327208;33;20010;-85
2022/10/20 09:42:52;;;;;;;;;;;;;;;18.67;36.19;100976.91;4338998;33;20001;-85
2022/10/20 09:45:27;;;;;;;;;;;;;;;18.35;35.94;100980.34;4347037;32;20466;-84
2022/10/20 09:47:55;;;;;;;;;;;;;;;18.50;35.79;100979.47;4338502;33;20013;-84
2022/10/20 09:50:24;;;;;;;;;;;;;;;18.71;35.57;100975.16;4326959;33;20499;-84
2022/10/20 09:52:51;;;;;;;;;;;;;;;18.90;36.79;100978.72;4339911;33;20002;-85
2022/10/20 09:55:21;;;;;;;;;;;;;;;18.37;37.95;100982.97;4326351;33;20467;-84
2022/10/20 09:57:48;;;;;;;;;;;;;;;18.49;35.63;100983.00;4325968;33;19995;-85
2022/10/20 10:00:21;;;;;;;;;;;;;;;18.79;36.60;100970.81;4326163;33;20321;-86
2022/10/20 10:03:20;;;;;;;;;;;;;;;18.55;35.67;100977.75;4328366;33;19980;-87
2022/10/20 10:05:53;;;;;;;;;;;;;;;18.50;35.28;100979.47;4340338;33;20035;-85
2022/10/20 10:08:21;;;;;;;;;;;;;;;18.64;37.70;100981.28;4326279;33;20669;-84
2022/10/20 10:11:04;;;;;;;;;;;;;;;18.72;37.31;100984.78;4339715;33;19983;-85
2022/10/20 10:13:36;;;;;;;;;;;;;;;18.72;38.14;100975.19;4325676;33;19980;-84
2022/10/20 10:16:04;;;;;;;;;;;;;;;18.66;36.77;100984.75;4326925;33;19979;-85
2022/10/20 10:18:31;;;;;;;;;;;;;;;19.03;36.92;100986.56;4326326;33;19998;-84
2022/10/20 10:20:59;;;;;;;;;;;;;;;19.04;36.13;100977.81;4326319;33;20003;-84
2022/10/20 10:23:27;;;;;;;;;;;;;;;18.64;36.99;100965.53;4326540;33;20006;-85
2022/10/20 10:25:54;;;;;;;;;;;;;;;19.21;36.12;100963.81;4328311;33;19994;-85
2022/10/20 10:28:29;;;;;;;;;;;;;;;19.07;36.89;100961.19;4329305;33;19975;-85
2022/10/20 10:31:22;;;;;;;;;;;;;;;19.14;35.42;100967.31;3590178;33;10008490;-85
2022/10/20 10:33:51;;;;;;;;;;;;;;;18.76;36.67;100955.06;4334817;33;20530;-84
2022/10/20 10:36:34;;;;;;;;;;;;;;;18.98;36.03;100954.19;4329683;33;19998;-84
2022/10/20 10:39:01;;;;;;;;;;;;;;;19.45;35.70;100955.87;4341163;33;19988;-85
2022/10/20 10:41:40;;;;;;;;;;;;;;;19.44;36.09;100951.53;4329185;33;19992;-84
2022/10/20 10:44:10;;;;;;;;;;;;;;;19.39;35.93;100949.78;4326457;33;19984;-85
2022/10/20 10:46:56;;;;;;;;;;;;;;;18.49;37.38;100951.53;4328361;33;19983;-85
2022/10/20 10:49:38;;;;;;;;;;;;;;;18.51;38.51;100938.44;4341853;33;20002;-85
2022/10/20 10:52:15;;;;;;;;;;;;;;;18.80;37.68;100935.84;4350608;32;19995;-86
2022/10/20 10:54:42;;;;;;;;;;;;;;;18.57;37.50;100931.44;4340332;33;20265;-85
2022/10/20 10:57:30;;;;;;;;;;;;;;;18.43;36.87;100935.78;4341676;33;19988;-84
2022/10/20 10:59:59;;;;;;;;;;;;;;;19.13;36.84;100926.19;4326806;32;19998;-85
2022/10/20 11:02:33;;;;;;;;;;;;;;;18.47;36.73;100921.78;3737161;33;20003043;-84
2022/10/20 11:05:03;;;;;;;;;;;;;;;18.98;37.19;100920.09;4327991;33;19998;-86
2022/10/20 11:07:33;;;;;;;;;;;;;;;19.24;37.96;100912.19;4341605;33;20000;-84
2022/10/20 11:10:07;;;;;;;;;;;;;;;18.61;36.16;100907.84;4347471;32;19987;-86
2022/10/20 11:12:41;;;;;;;;;;;;;;;18.84;35.87;100900.88;4342165;32;19988;-85
2022/10/20 11:15:23;;;;;;;;;;;;;;;18.95;35.73;100904.38;4338794;32;20046;-85
2022/10/20 11:18:03;;;;;;;;;;;;;;;19.05;35.51;100906.09;4341896;33;20325;-85
2022/10/20 11:20:45;;;;;;;;;;;;;;;18.96;35.50;100900.88;4342878;32;20003;-85
2022/10/20 11:23:31;;;;;;;;;;;;;;;19.09;36.52;100901.72;4299821;33;20248;-87
2022/10/20 11:26:11;;;;;;;;;;;;;;;18.57;35.47;100897.34;4302492;33;20799;-87
2022/10/20 11:28:45;;;;;;;;;;;;;;;18.47;36.93;100895.56;4302822;33;19994;-85
2022/10/20 11:31:20;;;;;;;;;;;;;;;18.86;34.94;100882.50;4318653;33;19976;-86
2022/10/20 11:33:50;;;;;;;;;;;;;;;19.36;34.75;100879.75;4311131;33;20051;-86
2022/10/20 11:36:17;;;;;;;;;;;;;;;19.55;33.73;100870.06;4304491;33;19980;-86
2022/10/20 11:38:48;;;;;;;;;;;;;;;19.14;35.05;100872.81;4307437;33;19980;-89
2022/10/20 11:41:22;;;;;;;;;;;;;;;19.05;34.35;100869.34;4302258;33;20258;-87
2022/10/20 11:43:49;;;;;;;;;;;;;;;19.36;34.98;100869.25;4318626;33;20012;-85
2022/10/20 11:46:18;;;;;;;;;;;;;;;19.51;36.01;100866.56;4294474;33;20027;-86
2022/10/20 11:48:48;;;;;;;;;;;;;;;18.88;36.40;100863.25;4290697;33;19999;-85
2022/10/20 11:51:18;;;;;;;;;;;;;;;18.33;37.45;100865.88;4297253;33;20771;-86
2022/10/20 11:53:52;;;;;;;;;;;;;;;18.72;36.38;100856.25;4315065;33;20006;-88
2022/10/20 11:56:25;;;;;;;;;;;;;;;18.61;35.65;100855.41;4328990;33;19984;-86
2022/10/20 11:59:01;;;;;;;;;;;;;;;19.16;35.27;100857.97;4316851;33;19980;-90
2022/10/20 12:01:34;;;;;;;;;;;;;;;18.47;36.46;100852.75;4323142;33;19984;-93
2022/10/20 12:04:01;;;;;;;;;;;;;;;19.52;34.48;100849.94;4316852;33;19996;-88
2022/10/20 12:06:31;;;;;;;;;;;;;;;19.46;35.32;100847.34;4315740;33;20047;-89
2022/10/20 12:09:13;;;;;;;;;;;;;;;18.53;35.02;100848.38;4305949;33;20000;-80
2022/10/20 12:11:45;;;;;;;;;;;;;;;18.74;36.57;100857.16;4310011;33;20006;-84
2022/10/20 12:14:17;;;;;;;;;;;;;;;18.46;36.87;100851.03;4310447;33;19980;-82
2022/10/20 12:16:51;;;;;;;;;;;;;;;18.75;36.91;100844.03;4307945;33;19988;-86
2022/10/20 12:19:21;;;;;;;;;;;;;;;19.31;34.85;100843.91;4309165;33;20004;-85
2022/10/20 12:21:53;;;;;;;;;;;;;;;19.34;35.02;100836.91;4350123;32;19991;-81
2022/10/20 12:24:41;;;;;;;;;;;;;;;19.30;36.22;100843.03;4351204;32;19995;-79
2022/10/20 12:27:09;;;;;;;;;;;;;;;18.80;34.39;100837.03;4350838;32;20752;-86
2022/10/20 12:29:40;;;;;;;;;;;;;;;18.91;34.62;100833.53;4347025;32;19991;-80
2022/10/20 12:32:25;;;;;;;;;;;;;;;18.08;36.93;100834.38;4334753;32;19979;-87
2022/10/20 12:34:59;;;;;;;;;;;;;;;18.53;36.23;100827.41;4337015;32;19983;-80
2022/10/20 12:37:29;;;;;;;;;;;;;;;18.49;34.81;100830.91;4348866;32;20324;-83
2022/10/20 12:40:17;;;;;;;;;;;;;;;18.95;34.27;100820.41;4334057;32;19986;-83
2022/10/20 12:42:49;;;;;;;;;;;;;;;18.68;35.48;100823.03;3753597;32;10009694;-91
2022/10/20 12:45:18;;;;;;;;;;;;;;;18.13;36.22;100811.69;4355082;32;20396;-88
2022/10/20 12:47:57;;;;;;;;;;;;;;;18.37;35.18;100815.19;4336216;32;20041;-87
2022/10/20 12:50:41;;;;;;;;;;;;;;;18.79;35.69;100809.06;4339673;32;19983;-85
2022/10/20 12:53:28;;;;;;;;;;;;;;;19.13;35.79;100802.84;4353575;32;19999;-80
2022/10/20 12:56:09;;;;;;;;;;;;;;;19.14;34.21;100804.59;4334574;32;20006;-84
2022/10/20 12:58:37;;;;;;;;;;;;;;;19.55;34.71;100800.91;4324661;32;21257;-91
2022/10/20 13:01:06;;;;;;;;;;;;;;;18.56;34.32;100790.69;4329887;32;20289;-81
2022/10/20 13:03:34;;;;;;;;;;;;;;;18.76;35.97;100803.84;4332460;32;20028;-84
2022/10/20 13:06:22;;;;;;;;;;;;;;;18.16;36.70;100796.84;4347467;32;20019;-89
2022/10/20 13:09:06;;;;;;;;;;;;;;;18.73;35.09;100792.44;4352718;32;20054;-85
2022/10/20 13:11:46;;;;;;;;;;;;;;;18.08;35.73;100792.47;4352085;32;20004;-87
2022/10/20 13:14:25;;;;;;;;;;;;;;;18.10;36.42;100795.09;4329806;33;20058;-80
2022/10/20 13:17:00;;;;;;;;;;;;;;;17.78;36.28;100792.44;4322187;33;19980;-83
2022/10/20 13:19:58;;;;;;;;;;;;;;;18.05;35.45;100789.84;4320228;33;20298;-82
2022/10/20 13:22:38;;;;;;;;;;;;;;;18.28;36.29;100783.72;4315202;33;19991;-86
2022/10/20 13:25:10;;;;;;;;;;;;;;;18.59;34.92;100790.69;4298312;33;20035;-78
2022/10/20 13:27:37;;;;;;;;;;;;;;;18.61;34.96;100795.09;4316396;33;19987;-87
2022/10/20 13:30:05;;;;;;;;;;;;;;;18.89;34.18;100788.94;4316213;33;20344;-81
2022/10/20 13:32:35;;;;;;;;;;;;;;;19.02;35.29;100780.16;4314239;33;20019;-83
2022/10/20 13:35:30;;;;;;;;;;;;;;;19.20;34.25;100778.31;4323146;32;19987;-87
2022/10/20 13:38:05;;;;;;;;;;;;;;;19.29;34.32;100780.91;4340613;32;19987;-80
2022/10/20 13:40:49;;;;;;;;;;;;;;;19.18;34.82;100774.84;4336751;32;20006;-83
2022/10/20 13:43:16;;;;;;;;;;;;;;;19.34;35.01;100776.50;4352331;32;20841;-83
2022/10/20 13:45:46;;;;;;;;;;;;;;;18.44;35.64;100779.34;4346638;32;19994;-87
2022/10/20 13:48:18;;;;;;;;;;;;;;;18.71;35.08;100783.69;4339569;33;19994;-83
2022/10/20 13:50:52;;;;;;;;;;;;;;;18.66;35.43;100777.56;4340414;33;19979;-80
2022/10/20 13:53:24;;;;;;;;;;;;;;;18.76;34.73;100781.94;4333677;33;20014;-81
2022/10/20 13:55:51;;;;;;;;;;;;;;;18.73;34.03;100776.72;4352997;32;19983;-82
2022/10/20 13:58:21;;;;;;;;;;;;;;;18.72;34.39;100774.94;4350321;32;19986;-88
2022/10/20 14:00:55;;;;;;;;;;;;;;;18.50;35.06;100767.09;4345555;32;19979;-83
2022/10/20 14:03:22;;;;;;;;;;;;;;;18.35;34.71;100770.62;4342116;33;19983;-79
2022/10/20 14:05:49;;;;;;;;;;;;;;;18.37;35.24;100768.00;4342228;32;20058;-80
2022/10/20 14:08:15;;;;;;;;;;;;;;;18.19;36.73;100768.00;4348814;32;19987;-81
2022/10/20 14:11:03;;;;;;;;;;;;;;;18.36;36.21;100758.41;4340436;33;19983;-81
2022/10/20 14:13:30;;;;;;;;;;;;;;;18.47;36.48;100758.38;4340889;33;19995;-81
2022/10/20 14:15:58;;;;;;;;;;;;;;;18.55;35.59;100757.50;4345016;32;19976;-86
2022/10/20 14:18:26;;;;;;;;;;;;;;;18.73;35.03;100751.38;4345463;32;19987;-83
2022/10/20 14:20:53;;;;;;;;;;;;;;;18.81;35.29;100753.97;4344273;32;20419;-84